Time;durP1;ratioP1;P1;durP2;ratioP2;P2;SDS_P1;SDS_P2;PMS_P1;PMS_P2;Temp;Humidity;BMP_temperature;BMP_pressure;BME280_temperature;BME280_humidity;BME280_pressure;Samples;Min_cycle;Max_cycle;Signal;HPM_P1;HPM_P2
2023/09/17 00:01:39;;;;;;;12.10;6.90;;;;;;;15.06;76.12;100467.33;131021;1256;108598;-83
2023/09/17 00:04:45;;;;;;;9.90;6.50;;;;;;;15.02;76.15;100468.63;131153;1250;108267;-83
2023/09/17 00:07:51;;;;;;;8.10;6.40;;;;;;;14.99;76.16;100471.91;131081;1267;107818;-83
2023/09/17 00:10:56;;;;;;;9.10;5.90;;;;;;;14.98;76.29;100463.66;131136;1251;107443;-83
2023/09/17 00:14:02;;;;;;;8.70;6.90;;;;;;;14.99;76.37;100464.02;131164;1251;108624;-83
2023/09/17 00:17:08;;;;;;;7.80;6.30;;;;;;;14.98;76.53;100462.84;131056;1251;106574;-83
2023/09/17 00:20:14;;;;;;;8.60;6.20;;;;;;;14.97;76.64;100462.23;131080;1254;106883;-83
2023/09/17 00:23:20;;;;;;;8.10;6.80;;;;;;;14.95;76.53;100462.52;131126;1250;106690;-84
2023/09/17 00:26:25;;;;;;;9.00;6.50;;;;;;;14.90;76.91;100462.31;131100;1251;107892;-83
2023/09/17 00:29:31;;;;;;;8.10;5.90;;;;;;;14.86;76.89;100465.80;130893;1259;107486;-84
2023/09/17 00:32:37;;;;;;;8.70;6.00;;;;;;;14.84;77.02;100463.39;131053;1257;107061;-84
2023/09/17 00:35:43;;;;;;;7.50;6.10;;;;;;;14.83;77.13;100461.52;131075;1256;108818;-83
2023/09/17 00:38:49;;;;;;;8.80;6.60;;;;;;;14.84;77.15;100452.78;131110;1250;106076;-84
2023/09/17 00:41:55;;;;;;;9.00;6.30;;;;;;;14.84;77.20;100449.76;131085;1255;108643;-83
2023/09/17 00:45:00;;;;;;;9.70;6.60;;;;;;;14.82;77.13;100449.63;131051;1251;107676;-83
2023/09/17 00:48:08;;;;;;;12.00;7.10;;;;;;;14.78;77.40;100445.09;131105;1255;107869;-83
2023/09/17 00:51:14;;;;;;;7.50;6.10;;;;;;;14.74;77.55;100449.88;131009;1250;107053;-83
2023/09/17 00:54:23;;;;;;;10.60;6.10;;;;;;;14.72;77.72;100445.61;131259;1255;108132;-83
2023/09/17 00:57:29;;;;;;;8.60;6.10;;;;;;;14.71;77.68;100449.05;131142;1254;106643;-83
2023/09/17 01:00:38;;;;;;;8.20;6.60;;;;;;;14.70;77.68;100449.18;131124;1251;106508;-84
2023/09/17 01:03:44;;;;;;;9.60;7.00;;;;;;;14.67;77.73;100446.38;131131;1254;106899;-83
2023/09/17 01:06:55;;;;;;;8.80;7.10;;;;;;;14.62;77.70;100443.52;131106;1254;107177;-83
2023/09/17 01:10:01;;;;;;;8.50;7.10;;;;;;;14.55;77.61;100442.11;131141;1252;106499;-83
2023/09/17 01:13:08;;;;;;;9.40;6.60;;;;;;;14.48;77.64;100442.16;131086;1251;107618;-83
2023/09/17 01:16:14;;;;;;;7.70;5.90;;;;;;;14.40;77.87;100444.59;131054;1256;106540;-83
2023/09/17 01:19:23;;;;;;;8.70;6.40;;;;;;;14.31;77.66;100447.30;131112;1256;106814;-83
2023/09/17 01:22:35;;;;;;;8.00;6.70;;;;;;;14.24;77.78;100447.89;131111;1254;107596;-83
2023/09/17 01:25:53;;;;;;;8.00;6.30;;;;;;;14.24;77.96;100451.88;131064;1254;106946;-83
2023/09/17 01:28:59;;;;;;;8.50;6.50;;;;;;;14.21;77.69;100453.80;131180;1256;106399;-83
2023/09/17 01:32:05;;;;;;;8.50;6.40;;;;;;;14.19;77.83;100445.33;131131;1254;106798;-83
2023/09/17 01:35:13;;;;;;;8.80;6.70;;;;;;;14.17;77.97;100441.20;131100;1254;107748;-84
2023/09/17 01:38:22;;;;;;;9.20;6.00;;;;;;;14.14;78.20;100442.08;131124;1254;106758;-84
2023/09/17 01:41:29;;;;;;;8.40;5.70;;;;;;;14.09;78.06;100434.52;131039;1255;108474;-84
2023/09/17 01:44:37;;;;;;;8.00;6.10;;;;;;;14.07;78.10;100431.60;131208;1250;107363;-83
2023/09/17 01:47:44;;;;;;;8.80;6.30;;;;;;;14.05;78.24;100432.84;131096;1255;106269;-83
2023/09/17 01:50:51;;;;;;;7.20;6.00;;;;;;;14.03;78.07;100432.69;131154;1254;106668;-83
2023/09/17 01:53:57;;;;;;;8.40;6.00;;;;;;;14.02;78.10;100431.04;131170;1251;106459;-83
2023/09/17 01:57:03;;;;;;;8.10;6.10;;;;;;;13.99;78.04;100431.65;131245;1257;107270;-83
2023/09/17 02:00:16;;;;;;;7.60;5.90;;;;;;;13.95;77.94;100429.55;131178;1251;107718;-83
2023/09/17 02:03:22;;;;;;;7.30;5.80;;;;;;;13.89;78.02;100430.36;131073;1255;107567;-83
2023/09/17 02:06:28;;;;;;;7.90;5.60;;;;;;;13.86;78.24;100434.13;131117;1254;107630;-83
2023/09/17 02:09:34;;;;;;;8.20;5.50;;;;;;;13.82;78.20;100435.78;130985;1253;108802;-83
2023/09/17 02:12:39;;;;;;;7.90;5.90;;;;;;;13.80;78.27;100427.98;131164;1254;107604;-83
2023/09/17 02:15:46;;;;;;;8.10;6.10;;;;;;;13.80;78.19;100428.84;131132;1257;107115;-83
2023/09/17 02:18:51;;;;;;;8.40;6.60;;;;;;;13.79;78.08;100423.65;130960;1255;108736;-83
2023/09/17 02:21:57;;;;;;;7.90;6.30;;;;;;;13.76;78.39;100423.58;130979;1256;107249;-83
2023/09/17 02:25:02;;;;;;;7.40;5.80;;;;;;;13.71;78.48;100421.73;131085;1255;106841;-83
2023/09/17 02:28:08;;;;;;;8.50;6.00;;;;;;;13.66;78.54;100421.58;131171;1254;107573;-83
2023/09/17 02:31:14;;;;;;;7.10;5.50;;;;;;;13.63;78.47;100426.25;131126;1254;106457;-83
2023/09/17 02:34:19;;;;;;;6.20;5.00;;;;;;;13.61;78.52;100419.01;131112;1256;107100;-84
2023/09/17 02:37:25;;;;;;;6.50;5.40;;;;;;;13.60;78.68;100423.90;131188;1257;106015;-83
2023/09/17 02:40:32;;;;;;;8.90;6.70;;;;;;;13.59;78.51;100422.45;131085;1251;106303;-83
2023/09/17 02:43:37;;;;;;;7.60;6.10;;;;;;;13.59;78.89;100424.00;131120;1251;107425;-83
2023/09/17 02:46:43;;;;;;;8.20;6.40;;;;;;;13.57;78.71;100424.10;130944;1256;106456;-83
2023/09/17 02:49:49;;;;;;;9.30;6.70;;;;;;;13.53;78.88;100421.45;131131;1254;107738;-83
2023/09/17 02:52:54;;;;;;;9.40;6.20;;;;;;;13.50;79.12;100418.57;131069;1256;106747;-83
2023/09/17 02:56:00;;;;;;;7.30;5.60;;;;;;;13.49;79.16;100425.34;131230;1255;107693;-83
2023/09/17 02:59:06;;;;;;;8.60;6.30;;;;;;;13.48;79.33;100424.34;131217;1256;106614;-85
2023/09/17 03:02:12;;;;;;;7.20;5.80;;;;;;;13.49;79.52;100427.91;130960;1251;107690;-84
2023/09/17 03:05:18;;;;;;;8.00;6.50;;;;;;;13.50;79.52;100427.31;130984;1256;107571;-85
2023/09/17 03:08:23;;;;;;;7.70;6.30;;;;;;;13.49;79.24;100422.73;131115;1256;107732;-84
2023/09/17 03:11:29;;;;;;;8.60;6.70;;;;;;;13.47;79.37;100423.50;130962;1251;108663;-85
2023/09/17 03:14:38;;;;;;;7.60;5.80;;;;;;;13.44;79.53;100426.67;131064;1264;106392;-84
2023/09/17 03:17:45;;;;;;;6.80;5.70;;;;;;;13.41;79.30;100423.46;130936;1256;106861;-84
2023/09/17 03:20:52;;;;;;;9.40;6.40;;;;;;;13.40;79.68;100414.08;131083;1256;106807;-84
2023/09/17 03:23:58;;;;;;;9.20;6.60;;;;;;;13.43;80.07;100411.27;131064;1251;106179;-84
2023/09/17 03:27:05;;;;;;;9.30;6.90;;;;;;;13.44;79.99;100410.09;130925;1257;106401;-84
2023/09/17 03:30:13;;;;;;;9.70;7.40;;;;;;;13.46;80.26;100408.26;131094;1254;107501;-84
2023/09/17 03:33:19;;;;;;;10.40;7.50;;;;;;;13.47;80.11;100410.32;131120;1255;107226;-84
2023/09/17 03:36:26;;;;;;;9.60;7.10;;;;;;;13.45;80.31;100405.58;131084;1250;107806;-84
2023/09/17 03:39:31;;;;;;;10.50;6.30;;;;;;;13.42;80.23;100399.05;130955;1256;109366;-84
2023/09/17 03:42:38;;;;;;;9.40;6.60;;;;;;;13.41;80.31;100400.81;131161;1255;106709;-84
2023/09/17 03:45:45;;;;;;;9.60;7.20;;;;;;;13.40;80.33;100399.81;131055;1254;106510;-84
2023/09/17 03:48:50;;;;;;;10.30;6.90;;;;;;;13.41;80.32;100397.23;131080;1255;106932;-84
2023/09/17 03:51:56;;;;;;;9.80;6.70;;;;;;;13.40;80.31;100394.08;130936;1256;107650;-84
2023/09/17 03:55:05;;;;;;;8.60;6.80;;;;;;;13.39;80.30;100398.30;131221;1258;107433;-84
2023/09/17 03:58:11;;;;;;;9.70;6.30;;;;;;;13.35;80.62;100402.89;131036;1256;107480;-84
2023/09/17 04:01:20;;;;;;;9.50;6.60;;;;;;;13.32;80.73;100399.41;131036;1253;106964;-84
2023/09/17 04:04:26;;;;;;;9.20;6.70;;;;;;;13.31;80.87;100391.59;130960;1257;107679;-84
2023/09/17 04:07:31;;;;;;;8.90;6.70;;;;;;;13.33;80.91;100394.52;131328;1254;106839;-84
2023/09/17 04:10:37;;;;;;;8.70;6.70;;;;;;;13.35;80.79;100396.39;130987;1251;106701;-84
2023/09/17 04:13:42;;;;;;;8.80;6.90;;;;;;;13.35;80.97;100395.11;131131;1254;108217;-84
2023/09/17 04:16:48;;;;;;;10.00;7.60;;;;;;;13.35;80.98;100394.60;131048;1256;106639;-84
2023/09/17 04:19:54;;;;;;;11.00;7.60;;;;;;;13.34;81.37;100390.96;130999;1258;106391;-84
2023/09/17 04:22:59;;;;;;;8.50;6.50;;;;;;;13.34;81.44;100392.94;130937;1250;106816;-84
2023/09/17 04:26:05;;;;;;;8.10;6.70;;;;;;;13.35;81.45;100391.43;131095;1256;105616;-84
2023/09/17 04:29:12;;;;;;;9.30;7.00;;;;;;;13.36;81.67;100390.42;130975;1253;108166;-84
2023/09/17 04:32:17;;;;;;;10.60;7.20;;;;;;;13.40;81.70;100392.34;131167;1256;108746;-85
2023/09/17 04:35:23;;;;;;;9.60;7.00;;;;;;;13.43;81.77;100395.05;131183;1255;106941;-84
2023/09/17 04:38:29;;;;;;;10.70;6.90;;;;;;;13.45;81.79;100394.82;131097;1251;107284;-85
2023/09/17 04:41:34;;;;;;;8.20;6.30;;;;;;;13.46;81.70;100392.34;131326;1256;106662;-84
2023/09/17 04:44:40;;;;;;;10.00;6.80;;;;;;;13.49;81.86;100395.11;131132;1256;107420;-84
2023/09/17 04:47:48;;;;;;;8.50;6.50;;;;;;;13.51;82.06;100399.09;131171;1257;107880;-84
2023/09/17 04:50:53;;;;;;;8.80;7.10;;;;;;;13.55;82.15;100403.73;131076;1256;107814;-84
2023/09/17 04:54:00;;;;;;;8.80;7.10;;;;;;;13.58;82.07;100412.02;131562;1251;108515;-85
2023/09/17 04:57:07;;;;;;;9.50;7.20;;;;;;;13.60;82.05;100414.91;131151;1255;108726;-84
2023/09/17 05:00:15;;;;;;;10.10;6.70;;;;;;;13.63;82.05;100420.48;131219;1265;106596;-84
2023/09/17 05:03:21;;;;;;;8.70;6.40;;;;;;;13.67;82.22;100425.30;130915;1253;108619;-84
2023/09/17 05:06:27;;;;;;;8.90;6.60;;;;;;;13.72;82.31;100429.95;130923;1251;107464;-84
2023/09/17 05:09:33;;;;;;;8.40;6.60;;;;;;;13.79;82.03;100429.87;131089;1256;107293;-84
2023/09/17 05:12:39;;;;;;;8.10;6.80;;;;;;;13.87;82.25;100430.27;131102;1251;106523;-85
2023/09/17 05:15:45;;;;;;;8.90;7.30;;;;;;;13.95;82.28;100426.67;131046;1256;106740;-84
2023/09/17 05:18:51;;;;;;;9.80;7.60;;;;;;;14.03;82.32;100428.98;130891;1256;108414;-84
2023/09/17 05:21:57;;;;;;;8.60;7.00;;;;;;;14.09;82.39;100429.22;131086;1256;107162;-83
2023/09/17 05:25:06;;;;;;;10.00;7.20;;;;;;;14.16;82.58;100427.95;131103;1255;106554;-85
2023/09/17 05:28:12;;;;;;;8.90;6.60;;;;;;;14.24;82.66;100429.70;131118;1267;107169;-84
2023/09/17 05:31:17;;;;;;;9.00;6.90;;;;;;;14.34;82.84;100428.23;131154;1254;106593;-85
2023/09/17 05:34:23;;;;;;;8.70;6.90;;;;;;;14.44;82.91;100429.16;131114;1255;107626;-84
2023/09/17 05:37:30;;;;;;;9.10;7.80;;;;;;;14.54;82.83;100433.42;131080;1256;107709;-84
2023/09/17 05:40:38;;;;;;;8.80;7.10;;;;;;;14.62;83.03;100432.20;131030;1256;107767;-84
2023/09/17 05:43:45;;;;;;;9.30;6.60;;;;;;;14.70;82.97;100426.95;131086;1256;107255;-84
2023/09/17 05:46:51;;;;;;;10.30;7.10;;;;;;;14.80;82.87;100429.40;131101;1251;106644;-84
2023/09/17 05:49:59;;;;;;;8.30;7.10;;;;;;;14.90;82.98;100432.23;131073;1250;107916;-84
2023/09/17 05:53:07;;;;;;;10.70;7.60;;;;;;;15.00;82.86;100431.30;130963;1259;107516;-84
2023/09/17 05:56:13;;;;;;;9.50;7.60;;;;;;;15.09;83.11;100430.93;131138;1251;110006;-85
2023/09/17 05:59:19;;;;;;;9.10;7.20;;;;;;;15.16;83.03;100432.96;131087;1254;107912;-85
2023/09/17 06:02:25;;;;;;;9.70;6.80;;;;;;;15.21;83.27;100433.80;131380;1256;107504;-85
2023/09/17 06:05:30;;;;;;;8.50;7.20;;;;;;;15.29;83.41;100432.25;130993;1256;106824;-84
2023/09/17 06:08:36;;;;;;;10.10;7.30;;;;;;;15.39;83.45;100429.85;131018;1256;107562;-84
2023/09/17 06:11:42;;;;;;;9.90;7.30;;;;;;;15.46;83.48;100432.38;131049;1257;106847;-84
2023/09/17 06:14:48;;;;;;;12.20;7.80;;;;;;;15.54;83.60;100433.01;131080;1256;107697;-84
2023/09/17 06:17:54;;;;;;;10.60;7.60;;;;;;;15.60;83.55;100442.14;131221;1251;106820;-84
2023/09/17 06:21:00;;;;;;;9.70;7.30;;;;;;;15.67;83.62;100438.31;131217;1255;107644;-84
2023/09/17 06:24:07;;;;;;;9.00;7.40;;;;;;;15.76;83.70;100436.42;131124;1256;106240;-84
2023/09/17 06:27:12;;;;;;;9.30;7.90;;;;;;;15.86;83.66;100436.44;131239;1251;107341;-84
2023/09/17 06:30:19;;;;;;;9.80;8.10;;;;;;;15.95;83.62;100428.01;131193;1250;106850;-83
2023/09/17 06:33:25;;;;;;;10.70;8.00;;;;;;;16.01;83.59;100430.15;131241;1256;107713;-84
2023/09/17 06:36:32;;;;;;;10.00;7.40;;;;;;;16.09;83.65;100430.50;131109;1257;107896;-85
2023/09/17 06:39:38;;;;;;;11.30;7.70;;;;;;;16.15;83.79;100431.19;131105;1256;107681;-85
2023/09/17 06:42:44;;;;;;;9.80;7.50;;;;;;;16.22;83.70;100424.39;131007;1251;108158;-89
2023/09/17 06:45:49;;;;;;;10.60;8.10;;;;;;;16.33;83.69;100427.80;131122;1256;106746;-85
2023/09/17 06:48:55;;;;;;;11.10;8.40;;;;;;;16.44;83.73;100427.09;131118;1253;106643;-86
2023/09/17 06:52:01;;;;;;;10.80;8.20;;;;;;;16.54;83.71;100432.40;131169;1256;108501;-85
2023/09/17 06:55:07;;;;;;;10.40;7.90;;;;;;;16.64;83.74;100430.95;131214;1255;106984;-86
2023/09/17 06:58:16;;;;;;;11.70;7.90;;;;;;;16.73;83.68;100435.31;131361;1256;107995;-85
2023/09/17 07:01:22;;;;;;;11.70;7.80;;;;;;;16.82;83.70;100434.38;131152;1256;107055;-87
2023/09/17 07:04:27;;;;;;;14.20;8.60;;;;;;;16.94;83.67;100434.59;131943;1255;108684;-85
2023/09/17 07:07:33;;;;;;;9.60;8.20;;;;;;;17.05;83.52;100435.09;131802;1251;106883;-87
2023/09/17 07:10:38;;;;;;;10.90;8.50;;;;;;;17.15;83.65;100438.89;131960;1252;107314;-86
2023/09/17 07:13:44;;;;;;;9.80;7.80;;;;;;;17.25;83.77;100441.65;131185;1256;107570;-86
2023/09/17 07:16:49;;;;;;;13.10;7.80;;;;;;;17.34;83.61;100441.11;131068;1256;107805;-86
2023/09/17 07:19:56;;;;;;;9.90;8.00;;;;;;;17.42;83.66;100438.20;131157;1256;107691;-86
2023/09/17 07:23:02;;;;;;;10.60;8.60;;;;;;;17.53;83.55;100445.43;131401;1252;107108;-86
2023/09/17 07:26:07;;;;;;;10.90;8.40;;;;;;;17.65;83.42;100450.64;131501;1250;107171;-86
2023/09/17 07:29:13;;;;;;;9.90;8.60;;;;;;;17.75;83.29;100457.73;131567;1256;107734;-87
2023/09/17 07:32:18;;;;;;;10.70;8.70;;;;;;;17.82;83.23;100461.74;131168;1256;108664;-86
2023/09/17 07:35:24;;;;;;;10.50;8.30;;;;;;;17.88;83.17;100462.40;131062;1257;108681;-86
2023/09/17 07:38:30;;;;;;;9.60;7.60;;;;;;;17.93;83.05;100460.44;131096;1254;107669;-86
2023/09/17 07:41:35;;;;;;;9.60;7.70;;;;;;;18.00;83.07;100457.67;131273;1255;107751;-88
2023/09/17 07:44:41;;;;;;;9.60;8.30;;;;;;;18.11;82.98;100456.30;131126;1251;106446;-88
2023/09/17 07:47:47;;;;;;;11.20;7.90;;;;;;;18.21;82.95;100452.65;131133;1256;107678;-88
2023/09/17 07:50:59;;;;;;;12.00;8.60;;;;;;;18.30;82.93;100444.48;131401;1251;107718;-86
2023/09/17 07:54:05;;;;;;;11.10;8.50;;;;;;;18.39;82.69;100440.67;131469;1256;106390;-86
2023/09/17 07:57:13;;;;;;;12.10;8.00;;;;;;;18.45;82.68;100438.41;131392;1256;105757;-86
2023/09/17 08:00:20;;;;;;;8.20;7.40;;;;;;;18.53;82.76;100444.60;131395;1257;107658;-86
2023/09/17 08:03:26;;;;;;;9.70;8.10;;;;;;;18.64;82.67;100449.59;131926;1251;106596;-87
2023/09/17 08:06:34;;;;;;;9.80;8.40;;;;;;;18.76;82.76;100444.30;131978;1251;107828;-88
2023/09/17 08:09:40;;;;;;;8.80;7.90;;;;;;;18.89;82.62;100441.36;131240;1256;107233;-86
2023/09/17 08:12:46;;;;;;;9.50;8.20;;;;;;;19.00;82.69;100447.27;131543;1256;107128;-86
2023/09/17 08:15:52;;;;;;;11.40;8.60;;;;;;;19.10;82.73;100443.38;131337;1255;106781;-89
2023/09/17 08:18:57;;;;;;;10.40;8.30;;;;;;;19.19;82.67;100442.94;131245;1264;107444;-88
2023/09/17 08:22:03;;;;;;;10.20;7.80;;;;;;;19.26;82.46;100440.17;131080;1251;107565;-87
2023/09/17 08:25:10;;;;;;;10.60;8.40;;;;;;;19.35;82.64;100439.71;131105;1253;107680;-86
2023/09/17 08:28:15;;;;;;;10.30;8.80;;;;;;;19.47;82.55;100441.61;131125;1255;106802;-87
2023/09/17 08:31:24;;;;;;;11.20;8.50;;;;;;;19.57;82.31;100437.49;131052;1251;106215;-86
2023/09/17 08:34:30;;;;;;;9.30;8.40;;;;;;;19.65;82.22;100433.78;131150;1256;106383;-88
2023/09/17 08:37:36;;;;;;;11.00;9.20;;;;;;;19.73;82.30;100436.47;131057;1256;106732;-87
2023/09/17 08:40:42;;;;;;;12.30;9.00;;;;;;;19.79;82.25;100438.30;131122;1256;107698;-88
2023/09/17 08:43:49;;;;;;;10.40;8.50;;;;;;;19.87;82.02;100437.27;131260;1255;107734;-88
2023/09/17 08:46:58;;;;;;;31.20;25.00;;;;;;;19.95;82.07;100436.63;131072;1255;107840;-88
2023/09/17 08:50:07;;;;;;;13.50;11.00;;;;;;;20.06;81.82;100433.06;131091;1256;106827;-88
2023/09/17 08:53:18;;;;;;;10.60;9.30;;;;;;;20.12;81.71;100433.27;131133;1255;106772;-88
2023/09/17 08:56:24;;;;;;;11.00;9.70;;;;;;;20.19;81.75;100429.30;131103;1257;107637;-88
2023/09/17 08:59:32;;;;;;;10.20;9.10;;;;;;;20.29;81.83;100429.30;131126;1256;107491;-88
2023/09/17 09:02:43;;;;;;;10.40;9.00;;;;;;;20.39;81.82;100424.86;131109;1257;108536;-88
2023/09/17 09:05:50;;;;;;;10.80;8.90;;;;;;;20.46;81.60;100423.88;130862;1256;106813;-88
2023/09/17 09:08:56;;;;;;;10.60;8.40;;;;;;;20.53;81.71;100419.10;131107;1255;107446;-88
2023/09/17 09:12:02;;;;;;;9.80;8.10;;;;;;;20.64;81.72;100418.70;131094;1257;106493;-89
2023/09/17 09:15:11;;;;;;;10.40;8.40;;;;;;;20.76;81.64;100413.94;131124;1256;106617;-89
2023/09/17 09:18:16;;;;;;;11.40;9.50;;;;;;;20.89;81.36;100407.64;131050;1256;108692;-89
2023/09/17 09:21:24;;;;;;;10.70;9.20;;;;;;;20.98;81.29;100404.77;131180;1256;106654;-89
2023/09/17 09:24:45;;;;;;;12.80;11.50;;;;;;;21.09;81.53;100404.14;131082;1255;106258;-89
2023/09/17 09:27:51;;;;;;;11.10;9.30;;;;;;;21.20;81.00;100403.58;131156;1256;107212;-89
2023/09/17 09:30:57;;;;;;;10.80;9.10;;;;;;;21.23;80.80;100406.67;131104;1254;106934;-90
2023/09/17 09:34:03;;;;;;;11.00;8.20;;;;;;;21.26;81.14;100406.13;131151;1255;107145;-89
2023/09/17 09:37:10;;;;;;;10.20;8.20;;;;;;;21.39;81.13;100404.31;131215;1256;107087;-89
2023/09/17 09:40:17;;;;;;;11.00;9.90;;;;;;;21.54;80.95;100407.64;131555;1264;106730;-89
2023/09/17 09:43:32;;;;;;;9.90;8.60;;;;;;;21.64;80.80;100399.41;131214;1254;107108;-89
2023/09/17 09:46:38;;;;;;;8.60;7.70;;;;;;;21.76;80.73;100401.64;133252;1254;107637;-87
2023/09/17 09:49:45;;;;;;;11.30;9.10;;;;;;;21.85;80.39;100392.61;131076;1256;107076;-88
2023/09/17 09:52:51;;;;;;;11.20;9.90;;;;;;;21.93;80.27;100394.45;131062;1264;108479;-88
2023/09/17 09:55:57;;;;;;;9.90;8.00;;;;;;;21.99;80.31;100393.80;131050;1256;106971;-88
2023/09/17 09:59:05;;;;;;;8.10;7.30;;;;;;;22.06;80.08;100387.02;131081;1257;107677;-88
2023/09/17 10:02:13;;;;;;;8.10;7.30;;;;;;;22.14;79.99;100383.70;131071;1255;107909;-87
2023/09/17 10:05:31;;;;;;;8.00;7.20;;;;;;;22.24;79.65;100380.97;131137;1256;106191;-88
2023/09/17 10:08:40;;;;;;;8.00;7.20;;;;;;;22.30;79.52;100383.29;131207;1257;108342;-88
2023/09/17 10:11:46;;;;;;;9.20;7.00;;;;;;;22.37;79.25;100380.29;131052;1256;106816;-87
2023/09/17 10:14:52;;;;;;;10.60;9.10;;;;;;;22.45;79.05;100379.98;131102;1256;106458;-88
2023/09/17 10:17:59;;;;;;;7.80;7.00;;;;;;;22.53;78.89;100380.30;131079;1256;107942;-88
2023/09/17 10:21:06;;;;;;;7.60;6.80;;;;;;;22.58;78.72;100381.52;131105;1257;108487;-88
2023/09/17 10:24:13;;;;;;;9.70;7.80;;;;;;;22.62;78.60;100376.25;131091;1264;108588;-88
2023/09/17 10:27:22;;;;;;;7.10;6.40;;;;;;;22.67;78.74;100376.22;131057;1256;106536;-88
2023/09/17 10:30:28;;;;;;;7.40;6.00;;;;;;;22.72;78.06;100379.91;131080;1256;106694;-88
2023/09/17 10:33:36;;;;;;;6.80;5.90;;;;;;;22.77;77.70;100378.46;131087;1255;106945;-88
2023/09/17 10:36:43;;;;;;;6.10;5.50;;;;;;;22.83;77.72;100378.84;131057;1255;108155;-91
2023/09/17 10:39:49;;;;;;;6.00;5.40;;;;;;;22.93;77.35;100379.59;131093;1261;108541;-89
2023/09/17 10:42:59;;;;;;;6.30;5.30;;;;;;;23.02;76.97;100384.02;131040;1255;108715;-87
2023/09/17 10:46:06;;;;;;;5.60;5.10;;;;;;;23.09;76.75;100380.92;131648;1260;106964;-89
2023/09/17 10:49:13;;;;;;;6.50;5.30;;;;;;;23.15;76.50;100377.85;131461;1256;106664;-88
2023/09/17 10:52:20;;;;;;;6.30;5.10;;;;;;;23.24;76.09;100381.11;131253;1256;105931;-88
2023/09/17 10:55:29;;;;;;;6.80;5.30;;;;;;;23.28;75.64;100380.63;131165;1264;107944;-88
2023/09/17 10:58:41;;;;;;;5.80;5.20;;;;;;;23.29;75.30;100376.79;131277;1264;107903;-89
2023/09/17 11:01:46;;;;;;;;;;;;;;;23.31;75.06;100376.73;131139;1256;108000;-89
2023/09/17 11:04:53;;;;;;;5.20;4.70;;;;;;;23.34;74.35;100376.05;130943;1257;204195;-89
2023/09/17 11:08:04;;;;;;;5.50;5.00;;;;;;;23.39;74.28;100376.95;131157;1256;107088;-91
2023/09/17 11:11:13;;;;;;;5.10;4.50;;;;;;;23.43;74.27;100373.98;131211;1261;107561;-89
2023/09/17 11:14:18;;;;;;;6.20;4.40;;;;;;;23.46;74.30;100376.10;131240;1256;107705;-90
2023/09/17 11:17:43;;;;;;;6.30;5.30;;;;;;;23.47;73.84;100369.55;131276;1257;107293;-89
2023/09/17 11:21:06;;;;;;;7.30;4.70;;;;;;;23.54;73.51;100374.17;131248;1251;107541;-90
2023/09/17 11:24:17;;;;;;;4.40;4.00;;;;;;;23.56;72.58;100371.44;131468;1254;107569;-90
2023/09/17 11:27:43;;;;;;;4.50;4.10;;;;;;;23.60;72.68;100371.25;131418;1257;107930;-88
2023/09/17 11:31:03;;;;;;;4.40;3.80;;;;;;;23.62;72.58;100370.71;131218;1264;106973;-89
2023/09/17 11:34:10;;;;;;;4.70;4.30;;;;;;;23.64;72.09;100370.76;131427;1257;107020;-91
2023/09/17 11:37:18;;;;;;;4.40;4.00;;;;;;;23.67;71.60;100366.97;131177;1256;107440;-93
2023/09/17 11:40:24;;;;;;;4.40;4.00;;;;;;;23.74;71.54;100366.85;131086;1264;107832;-91
2023/09/17 11:43:30;;;;;;;3.90;3.60;;;;;;;23.81;70.95;100369.94;131256;1257;107257;-90
2023/09/17 11:46:37;;;;;;;4.50;3.70;;;;;;;23.87;70.78;100373.98;131235;1257;108540;-91
2023/09/17 11:49:43;;;;;;;4.30;3.90;;;;;;;23.91;70.49;100375.92;131093;1256;107554;-90
2023/09/17 11:53:05;;;;;;;4.10;3.70;;;;;;;23.96;70.48;100379.14;131128;1256;107409;-95
2023/09/17 11:56:09;;;;;;;;;;;;;;;23.97;70.04;100375.40;131493;1257;107152;-90
2023/09/17 11:59:17;;;;;;;4.00;3.60;;;;;;;24.02;69.60;100379.55;131162;1264;108755;-90
2023/09/17 12:02:23;;;;;;;4.30;3.70;;;;;;;24.07;69.64;100379.05;131146;1251;107255;-92
2023/09/17 12:05:29;;;;;;;4.60;3.90;;;;;;;24.11;69.43;100379.64;131174;1256;107507;-90
2023/09/17 12:08:35;;;;;;;3.70;3.40;;;;;;;24.17;69.09;100378.56;131245;1257;107182;-90
2023/09/17 12:11:41;;;;;;;3.60;3.30;;;;;;;24.25;68.82;100380.30;131238;1255;107617;-93
2023/09/17 12:14:47;;;;;;;4.00;3.60;;;;;;;24.34;68.35;100374.77;131175;1264;107456;-91
2023/09/17 12:17:53;;;;;;;4.00;3.60;;;;;;;24.45;67.74;100381.48;131255;1254;108106;-94
2023/09/17 12:21:02;;;;;;;5.00;3.70;;;;;;;24.53;66.10;100374.84;131295;1256;106763;-95
2023/09/17 12:24:18;;;;;;;4.30;3.90;;;;;;;24.58;67.06;100379.43;131234;1254;107266;-90
2023/09/17 12:27:35;;;;;;;4.00;3.60;;;;;;;24.58;66.70;100377.80;131189;1251;107930;-90
2023/09/17 12:30:41;;;;;;;5.40;3.70;;;;;;;24.50;66.30;100375.00;131238;1254;107427;-88
2023/09/17 12:33:46;;;;;;;4.10;3.70;;;;;;;24.43;66.27;100372.21;131193;1256;107451;-87
2023/09/17 12:36:52;;;;;;;4.60;4.10;;;;;;;24.37;66.15;100365.71;131267;1257;107649;-88
2023/09/17 12:39:58;;;;;;;3.50;3.20;;;;;;;24.36;65.79;100363.02;131150;1255;106559;-88
2023/09/17 12:43:04;;;;;;;3.50;3.10;;;;;;;24.37;65.34;100359.45;131419;1251;108536;-89
2023/09/17 12:46:10;;;;;;;3.40;3.10;;;;;;;24.41;65.54;100359.21;131573;1254;107714;-88
2023/09/17 12:49:16;;;;;;;4.20;2.90;;;;;;;24.43;64.80;100357.61;131423;1251;108399;-95
2023/09/17 12:52:22;;;;;;;4.70;3.20;;;;;;;24.43;64.96;100354.12;131242;1256;107358;-89
2023/09/17 12:55:29;;;;;;;3.10;2.80;;;;;;;24.43;64.75;100353.68;131315;1251;106594;-89
2023/09/17 12:58:35;;;;;;;3.20;2.40;;;;;;;24.38;64.59;100355.48;131242;1254;107668;-90
2023/09/17 13:01:54;;;;;;;2.50;2.30;;;;;;;24.33;64.24;100351.40;131502;1251;106677;-87
2023/09/17 13:05:00;;;;;;;3.20;2.30;;;;;;;24.35;63.84;100354.50;135000;1251;107950;-88
2023/09/17 13:08:07;;;;;;;2.40;2.20;;;;;;;24.39;63.66;100356.23;131288;1257;108561;-87
2023/09/17 13:11:13;;;;;;;2.50;2.30;;;;;;;24.44;63.24;100354.56;131912;1251;107269;-88
2023/09/17 13:14:20;;;;;;;3.20;2.70;;;;;;;24.47;63.12;100356.51;131262;1251;107448;-88
2023/09/17 13:17:27;;;;;;;3.00;2.70;;;;;;;24.50;62.97;100358.55;131110;1251;107741;-88
2023/09/17 13:20:33;;;;;;;3.00;2.60;;;;;;;24.41;62.71;100358.28;131971;1251;106087;-87
2023/09/17 13:23:40;;;;;;;3.80;3.00;;;;;;;24.37;62.61;100354.48;131454;1254;107677;-87
2023/09/17 13:26:46;;;;;;;4.60;2.70;;;;;;;24.41;62.48;100351.89;131146;1258;107644;-88
2023/09/17 13:29:53;;;;;;;2.90;2.70;;;;;;;24.42;62.17;100349.15;131188;1255;107351;-88
2023/09/17 13:32:59;;;;;;;2.80;2.60;;;;;;;24.44;62.18;100351.02;131436;1251;108262;-89
2023/09/17 13:36:07;;;;;;;3.10;2.80;;;;;;;24.45;61.71;100352.83;131299;1257;107708;-88
2023/09/17 13:39:23;;;;;;;5.30;2.80;;;;;;;24.44;61.70;100353.80;131406;1256;107313;-88
2023/09/17 13:42:42;;;;;;;3.50;3.20;;;;;;;24.42;61.30;100352.98;131501;1257;109539;-89
2023/09/17 13:45:58;;;;;;;3.00;2.70;;;;;;;24.42;61.13;100351.42;131091;1256;106836;-90
2023/09/17 13:49:04;;;;;;;2.80;2.50;;;;;;;24.41;60.98;100350.05;131078;1254;107173;-89
2023/09/17 13:52:10;;;;;;;3.40;3.10;;;;;;;24.41;60.98;100352.48;131160;1251;107211;-89
2023/09/17 13:55:17;;;;;;;3.40;3.10;;;;;;;24.41;61.05;100352.82;131046;1251;107202;-88
2023/09/17 13:58:22;;;;;;;3.80;3.50;;;;;;;24.39;61.02;100352.50;131143;1251;107766;-87
2023/09/17 14:01:28;;;;;;;4.90;3.60;;;;;;;24.36;61.00;100352.02;131203;1257;107822;-88
2023/09/17 14:04:34;;;;;;;3.50;3.20;;;;;;;24.34;60.86;100346.56;131151;1251;107069;-88
2023/09/17 14:07:39;;;;;;;3.40;2.90;;;;;;;24.29;60.80;100345.16;131175;1257;107374;-87